Time;durP1;ratioP1;P1;durP2;ratioP2;P2;SDS_P1;SDS_P2;PMS_P1;PMS_P2;Temp;Humidity;BMP_temperature;BMP_pressure;BME280_temperature;BME280_humidity;BME280_pressure;Samples;Min_cycle;Max_cycle;Signal;HPM_P1;HPM_P2
2023/10/26 00:01:48;;;;;;;20.13;13.73;;;11.30;98.70;;;;;;766572;184;26488;-90
2023/10/26 00:04:21;;;;;;;25.20;15.47;;;11.30;98.80;;;;;;764362;185;27109;-90
2023/10/26 00:07:18;;;;;;;;;;;;;;;;;;;;;
2023/10/26 00:09:49;;;;;;;20.27;13.23;;;11.30;98.90;;;;;;757044;186;26494;-91
2023/10/26 00:12:40;;;;;;;15.13;10.90;;;11.30;98.90;;;;;;750236;189;27074;-90
2023/10/26 00:15:19;;;;;;;16.47;11.27;;;11.20;98.80;;;;;;764848;184;27022;-89
2023/10/26 00:17:51;;;;;;;17.57;11.20;;;11.20;98.80;;;;;;765699;187;27102;-90
2023/10/26 00:20:21;;;;;;;15.73;10.90;;;11.20;98.80;;;;;;747744;187;26555;-90
2023/10/26 00:22:51;;;;;;;15.63;10.67;;;11.20;98.90;;;;;;767700;184;26516;-85
2023/10/26 00:25:34;;;;;;;15.37;10.53;;;11.20;98.90;;;;;;762014;183;26526;-90
2023/10/26 00:28:15;;;;;;;11.43;8.57;;;11.10;98.80;;;;;;761625;183;26478;-90
2023/10/26 00:30:50;;;;;;;10.03;7.93;;;11.20;98.80;;;;;;761620;185;26530;-85
2023/10/26 00:33:20;;;;;;;14.20;10.43;;;11.10;98.90;;;;;;765315;182;26518;-91
2023/10/26 00:35:46;;;;;;;9.93;7.27;;;11.10;98.90;;;;;;770834;182;26478;-87
2023/10/26 00:38:16;;;;;;;13.63;9.53;;;11.10;98.80;;;;;;770760;185;26445;-89
2023/10/26 00:40:47;;;;;;;14.03;9.37;;;11.10;98.90;;;;;;751609;188;26505;-89
2023/10/26 00:43:25;;;;;;;21.30;13.73;;;11.10;98.90;;;;;;749523;187;26469;-84
2023/10/26 00:45:58;;;;;;;13.50;9.40;;;11.10;99.00;;;;;;765803;185;27007;-87
2023/10/26 00:48:29;;;;;;;12.60;9.63;;;11.10;99.00;;;;;;762112;186;26688;-90
2023/10/26 00:51:02;;;;;;;20.60;13.37;;;11.10;99.10;;;;;;744110;188;26527;-89
2023/10/26 00:53:36;;;;;;;14.23;10.27;;;11.10;99.00;;;;;;763492;186;26516;-85
2023/10/26 00:56:07;;;;;;;14.50;10.13;;;11.00;98.90;;;;;;771360;186;26472;-89
2023/10/26 00:58:36;;;;;;;14.60;10.67;;;11.00;98.70;;;;;;761198;188;26492;-89
2023/10/26 01:01:15;;;;;;;14.47;10.67;;;11.00;98.80;;;;;;759433;186;26534;-89
2023/10/26 01:03:49;;;;;;;16.23;11.87;;;11.00;98.80;;;;;;763225;185;26503;-85
2023/10/26 01:06:18;;;;;;;16.70;12.87;;;11.00;98.80;;;;;;757592;188;26514;-88
2023/10/26 01:08:49;;;;;;;17.13;11.57;;;11.00;98.90;;;;;;757889;188;26492;-89
2023/10/26 01:11:19;;;;;;;20.13;12.93;;;11.00;98.80;;;;;;756217;186;27032;-83
2023/10/26 01:13:50;;;;;;;20.10;13.83;;;11.00;98.90;;;;;;756667;188;26487;-89
2023/10/26 01:16:20;;;;;;;19.60;14.27;;;11.00;98.90;;;;;;760829;189;26492;-90
2023/10/26 01:18:54;;;;;;;22.53;15.23;;;11.00;98.70;;;;;;760753;188;26488;-86
2023/10/26 01:21:43;;;;;;;30.90;18.23;;;11.00;98.80;;;;;;758218;186;27081;-88
2023/10/26 01:24:25;;;;;;;;;;;;;;;;;;;;;
2023/10/26 01:26:55;;;;;;;29.57;19.63;;;11.00;98.80;;;;;;765634;187;26454;-89
2023/10/26 01:29:23;;;;;;;26.43;18.93;;;11.00;98.60;;;;;;765793;182;26513;-89
2023/10/26 01:32:00;;;;;;;28.20;19.63;;;11.00;98.60;;;;;;764198;184;27047;-88
2023/10/26 01:34:52;;;;;;;26.40;18.70;;;11.00;98.50;;;;;;750230;188;26454;-89
2023/10/26 01:37:23;;;;;;;26.53;18.80;;;11.00;98.60;;;;;;761066;187;26476;-88
2023/10/26 01:39:57;;;;;;;28.93;20.27;;;11.00;98.60;;;;;;757701;185;27158;-88
2023/10/26 01:42:31;;;;;;;29.83;19.20;;;10.90;98.50;;;;;;762318;185;26484;-87
2023/10/26 01:45:01;;;;;;;30.47;20.50;;;11.00;98.60;;;;;;758134;188;26499;-87
2023/10/26 01:47:31;;;;;;;28.73;18.70;;;10.90;98.60;;;;;;750927;188;26495;-87
2023/10/26 01:50:06;;;;;;;28.03;20.00;;;10.90;99.00;;;;;;748716;189;27061;-88
2023/10/26 01:52:44;;;;;;;35.40;22.33;;;10.90;98.60;;;;;;748476;189;26471;-88
2023/10/26 01:55:16;;;;;;;43.30;24.03;;;10.90;98.70;;;;;;749646;188;26474;-87
2023/10/26 01:57:52;;;;;;;36.33;23.13;;;10.90;98.70;;;;;;763282;185;26453;-88
2023/10/26 02:00:22;;;;;;;45.40;25.37;;;10.90;98.70;;;;;;758256;186;26511;-85
2023/10/26 02:02:50;;;;;;;44.57;25.73;;;10.90;98.70;;;;;;758090;189;26498;-87
2023/10/26 02:05:27;;;;;;;42.53;24.77;;;10.90;98.70;;;;;;758056;185;26547;-87
2023/10/26 02:08:09;;;;;;;39.37;24.23;;;10.90;98.80;;;;;;756380;187;27073;-89
2023/10/26 02:10:41;;;;;;;35.67;23.20;;;10.90;98.80;;;;;;751713;190;26529;-89
2023/10/26 02:13:09;;;;;;;38.10;24.07;;;10.90;98.60;;;;;;776241;182;26443;-86
2023/10/26 02:15:39;;;;;;;36.17;23.47;;;10.80;98.50;;;;;;772746;182;26460;-86
2023/10/26 02:18:12;;;;;;;40.07;25.20;;;10.90;98.60;;;;;;770913;180;26454;-86
2023/10/26 02:20:41;;;;;;;44.83;26.73;;;10.90;98.60;;;;;;771482;183;26491;-82
2023/10/26 02:23:08;;;;;;;35.70;24.03;;;10.90;98.80;;;;;;757263;186;26510;-87
2023/10/26 02:25:41;;;;;;;40.50;24.23;;;10.90;98.70;;;;;;748452;189;26474;-86
2023/10/26 02:28:15;;;;;;;33.17;22.67;;;10.90;98.60;;;;;;762708;186;26471;-86
2023/10/26 02:30:43;;;;;;;33.50;22.97;;;10.90;98.50;;;;;;751301;188;26531;-86
2023/10/26 02:33:17;;;;;;;36.47;22.90;;;10.90;98.50;;;;;;776252;182;26467;-82
2023/10/26 02:35:46;;;;;;;40.37;24.77;;;10.90;98.50;;;;;;773687;179;26529;-84
2023/10/26 02:38:28;;;;;;;34.17;22.07;;;10.90;98.60;;;;;;750578;190;26489;-86
2023/10/26 02:41:07;;;;;;;40.17;24.77;;;10.80;98.30;;;;;;770087;183;26480;-86
2023/10/26 02:43:37;;;;;;;43.27;26.10;;;10.80;98.40;;;;;;770202;180;26456;-86
2023/10/26 02:46:09;;;;;;;39.80;25.07;;;10.90;98.40;;;;;;750077;186;27160;-87
2023/10/26 02:48:41;;;;;;;38.87;24.77;;;10.90;98.40;;;;;;753514;185;26518;-86
2023/10/26 02:51:16;;;;;;;38.93;24.37;;;10.90;98.40;;;;;;752376;188;26511;-81
2023/10/26 02:53:45;;;;;;;40.37;23.13;;;10.90;98.60;;;;;;752264;191;26469;-86
2023/10/26 02:56:12;;;;;;;37.47;24.23;;;10.90;98.20;;;;;;756317;188;26499;-85
2023/10/26 02:58:48;;;;;;;40.00;25.53;;;10.80;98.10;;;;;;757611;188;26489;-86
2023/10/26 03:01:22;;;;;;;39.17;25.40;;;10.90;98.20;;;;;;770583;178;26504;-85
2023/10/26 03:03:52;;;;;;;37.23;23.33;;;10.90;98.20;;;;;;795018;180;26454;-86
2023/10/26 03:06:22;;;;;;;39.07;24.00;;;10.90;98.30;;;;;;773900;180;26593;-86
2023/10/26 03:08:56;;;;;;;36.93;24.77;;;10.80;98.20;;;;;;770926;179;26463;-86
2023/10/26 03:11:31;;;;;;;37.53;24.17;;;10.80;98.20;;;;;;760106;182;26551;-86
2023/10/26 03:14:09;;;;;;;40.10;25.23;;;10.80;98.30;;;;;;757327;185;26517;-86
2023/10/26 03:16:40;;;;;;;42.70;25.87;;;10.80;98.20;;;;;;762218;185;27019;-85
2023/10/26 03:19:13;;;;;;;36.07;23.80;;;10.90;98.30;;;;;;767085;187;28087;-85
2023/10/26 03:21:41;;;;;;;41.83;24.77;;;10.80;98.10;;;;;;773574;182;26494;-85
2023/10/26 03:24:12;;;;;;;34.70;23.10;;;10.80;98.00;;;;;;750993;187;26444;-85
2023/10/26 03:26:48;;;;;;;40.63;25.50;;;10.80;98.00;;;;;;774503;183;26478;-81
2023/10/26 03:29:21;;;;;;;47.43;27.13;;;10.80;98.10;;;;;;775357;184;26472;-86
2023/10/26 03:31:48;;;;;;;42.53;26.60;;;10.80;98.10;;;;;;774487;184;27100;-85
2023/10/26 03:34:15;;;;;;;41.23;23.87;;;10.80;98.10;;;;;;758583;187;26516;-86
2023/10/26 03:36:59;;;;;;;43.80;26.30;;;10.80;98.00;;;;;;764610;187;26492;-85
2023/10/26 03:39:28;;;;;;;40.60;24.60;;;10.80;98.00;;;;;;764323;187;27068;-85
2023/10/26 03:41:58;;;;;;;33.87;23.80;;;10.80;98.10;;;;;;775225;185;26562;-86
2023/10/26 03:44:30;;;;;;;36.07;23.30;;;10.80;97.90;;;;;;775038;184;27068;-82
2023/10/26 03:47:01;;;;;;;32.50;22.97;;;10.80;97.90;;;;;;755693;188;26477;-86
2023/10/26 03:49:33;;;;;;;26.07;19.97;;;10.80;97.70;;;;;;762884;187;27032;-80
2023/10/26 03:52:03;;;;;;;26.13;19.83;;;10.80;97.60;;;;;;771108;186;26547;-85
2023/10/26 03:54:35;;;;;;;29.77;20.60;;;10.70;97.50;;;;;;778002;184;26515;-86
2023/10/26 03:57:06;;;;;;;26.50;19.37;;;10.70;97.60;;;;;;768702;183;26540;-86
2023/10/26 03:59:35;;;;;;;33.10;23.07;;;10.70;97.60;;;;;;776390;181;26466;-85
2023/10/26 04:02:04;;;;;;;27.17;20.30;;;10.80;97.60;;;;;;781153;184;26562;-85
2023/10/26 04:04:33;;;;;;;28.40;20.53;;;10.70;97.30;;;;;;765511;187;26489;-85
2023/10/26 04:07:07;;;;;;;25.97;19.33;;;10.70;97.20;;;;;;774807;183;26524;-81
2023/10/26 04:09:35;;;;;;;29.13;20.70;;;10.70;97.30;;;;;;779189;181;26485;-85
2023/10/26 04:12:09;;;;;;;29.37;20.47;;;10.60;97.20;;;;;;779071;184;26481;-85
2023/10/26 04:14:39;;;;;;;30.67;21.77;;;10.60;97.30;;;;;;780274;183;27067;-84
2023/10/26 04:17:15;;;;;;;31.27;20.30;;;10.70;97.40;;;;;;755774;186;27180;-85
2023/10/26 04:19:54;;;;;;;32.43;22.50;;;10.70;97.30;;;;;;765614;179;27043;-85
2023/10/26 04:22:29;;;;;;;29.73;22.03;;;10.70;97.40;;;;;;796346;180;26468;-85
2023/10/26 04:25:11;;;;;;;31.90;20.57;;;10.70;97.50;;;;;;798747;178;26435;-85
2023/10/26 04:27:42;;;;;;;30.43;21.47;;;10.70;97.20;;;;;;775219;184;27022;-81
2023/10/26 04:30:17;;;;;;;33.47;22.17;;;10.70;97.10;;;;;;787922;177;26508;-85
2023/10/26 04:32:46;;;;;;;24.83;18.80;;;10.70;97.20;;;;;;777295;184;26490;-85
2023/10/26 04:35:21;;;;;;;28.80;20.53;;;10.70;97.20;;;;;;775367;181;26484;-84
2023/10/26 04:37:52;;;;;;;27.43;19.20;;;10.70;97.00;;;;;;781168;183;26488;-84
2023/10/26 04:40:24;;;;;;;27.10;19.27;;;10.60;96.90;;;;;;763172;184;27057;-82
2023/10/26 04:42:54;;;;;;;28.63;19.10;;;10.60;97.00;;;;;;762993;187;27084;-84
2023/10/26 04:45:25;;;;;;;28.20;19.47;;;10.70;97.10;;;;;;761438;185;26492;-84
2023/10/26 04:47:54;;;;;;;24.47;18.83;;;10.70;96.90;;;;;;780189;181;27035;-84
2023/10/26 04:50:25;;;;;;;25.83;18.93;;;10.60;96.70;;;;;;780711;179;26488;-84
2023/10/26 04:52:56;;;;;;;29.27;20.77;;;10.60;96.70;;;;;;785433;179;26457;-80
2023/10/26 04:55:40;;;;;;;29.23;20.33;;;10.60;96.70;;;;;;768865;184;26459;-85
2023/10/26 04:58:13;;;;;;;28.93;19.60;;;10.60;96.90;;;;;;776622;183;26472;-85
2023/10/26 05:00:43;;;;;;;25.50;19.47;;;10.60;96.90;;;;;;776737;181;26511;-85
2023/10/26 05:03:45;;;;;;;29.77;20.10;;;10.60;96.90;;;;;;778401;183;27114;-85
2023/10/26 05:08:46;;;;;;;25.50;18.77;;;10.60;97.00;;;;;;777839;183;26472;-85
2023/10/26 05:11:16;;;;;;;25.97;18.10;;;10.60;97.00;;;;;;791958;179;26459;-85
2023/10/26 05:13:53;;;;;;;23.20;17.57;;;10.70;97.00;;;;;;791086;176;26481;-85
2023/10/26 05:16:22;;;;;;;25.40;18.23;;;10.60;96.40;;;;;;780595;183;26461;-84
2023/10/26 05:19:02;;;;;;;31.23;20.10;;;10.60;96.50;;;;;;779539;182;26446;-84
2023/10/26 05:21:38;;;;;;;27.37;19.13;;;10.60;96.50;;;;;;783708;181;27014;-85
2023/10/26 05:24:08;;;;;;;29.10;20.00;;;10.60;96.70;;;;;;765112;187;26477;-84
2023/10/26 05:26:37;;;;;;;25.93;19.57;;;10.60;96.80;;;;;;789135;181;26475;-85
2023/10/26 05:29:22;;;;;;;27.93;20.27;;;10.60;96.70;;;;;;789306;182;26509;-85
2023/10/26 05:31:57;;;;;;;30.93;20.33;;;10.60;96.40;;;;;;790066;178;26482;-86
2023/10/26 05:34:27;;;;;;;24.20;17.23;;;10.60;96.50;;;;;;785260;180;26447;-85
2023/10/26 05:36:59;;;;;;;32.83;20.87;;;10.60;96.50;;;;;;787939;181;26472;-85
2023/10/26 05:39:34;;;;;;;27.93;19.33;;;10.60;96.40;;;;;;762953;188;27151;-85
2023/10/26 05:42:07;;;;;;;30.47;20.80;;;10.60;96.50;;;;;;784693;180;27305;-85
2023/10/26 05:44:40;;;;;;;29.07;20.37;;;10.60;96.50;;;;;;762325;185;26496;-85
2023/10/26 05:47:11;;;;;;;23.37;17.53;;;10.60;97.00;;;;;;762270;187;26505;-85
2023/10/26 05:49:44;;;;;;;30.10;21.13;;;10.60;96.40;;;;;;762767;185;26499;-85
2023/10/26 05:52:30;;;;;;;27.87;18.97;;;10.50;96.40;;;;;;793513;180;27036;-85
2023/10/26 05:55:10;;;;;;;33.07;21.60;;;10.50;96.40;;;;;;793414;180;26528;-85
2023/10/26 05:57:48;;;;;;;30.10;20.87;;;10.50;96.50;;;;;;780549;181;26544;-85
2023/10/26 06:00:19;;;;;;;31.40;21.03;;;10.50;96.60;;;;;;779311;180;26525;-85
2023/10/26 06:02:58;;;;;;;31.67;21.37;;;10.50;96.60;;;;;;787859;180;27059;-85
2023/10/26 06:05:33;;;;;;;31.87;22.40;;;10.50;96.60;;;;;;785029;179;26449;-84
2023/10/26 06:08:17;;;;;;;27.93;19.70;;;10.40;96.60;;;;;;793491;180;26653;-85
2023/10/26 06:10:59;;;;;;;;;;;;;;;;;;;;;
2023/10/26 06:13:30;;;;;;;44.20;22.53;;;10.40;96.50;;;;;;765449;185;27109;-84
2023/10/26 06:16:05;;;;;;;32.20;21.00;;;10.50;96.60;;;;;;786574;180;27003;-85
2023/10/26 06:18:40;;;;;;;37.07;22.07;;;10.50;97.00;;;;;;761980;187;26581;-88
2023/10/26 06:21:13;;;;;;;31.63;20.73;;;10.50;96.50;;;;;;789422;179;26468;-87
2023/10/26 06:23:49;;;;;;;33.00;21.67;;;10.50;96.60;;;;;;791808;180;26484;-86
2023/10/26 06:26:22;;;;;;;35.57;21.50;;;10.40;96.30;;;;;;793189;179;26468;-87
2023/10/26 06:28:53;;;;;;;33.63;20.37;;;10.40;96.30;;;;;;790485;180;26428;-86
2023/10/26 06:31:22;;;;;;;35.43;22.10;;;10.30;96.40;;;;;;785694;180;26510;-86
2023/10/26 06:33:52;;;;;;;41.57;23.90;;;10.30;96.50;;;;;;783964;178;27026;-87
2023/10/26 06:36:27;;;;;;;39.80;23.63;;;10.20;96.80;;;;;;792405;180;26481;-87
2023/10/26 06:39:09;;;;;;;35.13;22.67;;;10.20;97.00;;;;;;794073;181;26445;-87
2023/10/26 06:41:37;;;;;;;34.70;21.57;;;10.30;97.30;;;;;;794242;178;27036;-87
2023/10/26 06:44:12;;;;;;;31.63;20.87;;;10.30;97.10;;;;;;791531;177;26453;-86
2023/10/26 06:46:38;;;;;;;29.43;19.53;;;10.40;97.10;;;;;;791659;180;26437;-87
2023/10/26 06:49:08;;;;;;;34.97;22.00;;;10.40;96.90;;;;;;797430;180;26461;-86
2023/10/26 06:51:38;;;;;;;35.07;21.43;;;10.50;96.90;;;;;;792389;178;27033;-86
2023/10/26 06:54:10;;;;;;;33.03;20.40;;;10.40;96.80;;;;;;786873;180;27020;-87
2023/10/26 06:56:39;;;;;;;33.33;21.37;;;10.40;96.70;;;;;;761913;185;27036;-86
2023/10/26 06:59:08;;;;;;;32.17;20.60;;;10.40;96.60;;;;;;781286;180;26446;-86
2023/10/26 07:01:34;;;;;;;30.83;20.00;;;10.40;96.60;;;;;;784454;181;26530;-86
2023/10/26 07:04:01;;;;;;;29.63;19.43;;;10.50;96.60;;;;;;793973;180;26996;-85
2023/10/26 07:06:29;;;;;;;29.30;20.37;;;10.50;96.60;;;;;;792585;180;27140;-87
2023/10/26 07:08:58;;;;;;;33.43;19.90;;;10.50;96.60;;;;;;778227;183;28183;-87
2023/10/26 07:11:45;;;;;;;29.30;19.80;;;10.60;96.60;;;;;;792658;178;26464;-87
2023/10/26 07:14:14;;;;;;;30.33;20.10;;;10.60;96.30;;;;;;793067;177;26446;-86
2023/10/26 07:16:43;;;;;;;35.97;21.07;;;10.70;96.30;;;;;;780814;183;27015;-87
2023/10/26 07:19:10;;;;;;;35.93;21.17;;;10.70;96.70;;;;;;782310;182;26489;-86
2023/10/26 07:21:39;;;;;;;35.00;21.70;;;10.80;97.00;;;;;;779437;181;27036;-86
2023/10/26 07:24:10;;;;;;;30.03;20.80;;;11.00;97.30;;;;;;778058;183;26492;-87
2023/10/26 07:26:43;;;;;;;29.23;19.77;;;11.10;97.40;;;;;;778450;182;26545;-87
2023/10/26 07:29:27;;;;;;;30.80;20.77;;;11.20;97.40;;;;;;784576;179;26544;-87
2023/10/26 07:32:00;;;;;;;29.43;20.70;;;11.30;97.00;;;;;;781948;180;26497;-88
2023/10/26 07:34:31;;;;;;;28.80;19.90;;;11.30;97.00;;;;;;790277;181;26463;-87
2023/10/26 07:37:00;;;;;;;27.47;19.73;;;11.40;97.00;;;;;;792203;176;26515;-87
2023/10/26 07:39:30;;;;;;;26.37;19.40;;;11.50;96.80;;;;;;794791;177;26507;-87
2023/10/26 07:42:01;;;;;;;29.20;19.20;;;11.50;96.60;;;;;;790089;179;26469;-87
2023/10/26 07:44:40;;;;;;;24.40;18.00;;;11.60;96.70;;;;;;791952;180;26442;-87
2023/10/26 07:47:12;;;;;;;23.47;17.20;;;11.70;96.50;;;;;;764908;186;26524;-87
2023/10/26 07:49:43;;;;;;;25.03;18.77;;;11.60;93.70;;;;;;778953;179;26447;-87
2023/10/26 07:52:19;;;;;;;25.73;19.20;;;11.50;93.80;;;;;;784964;181;26445;-87
2023/10/26 07:54:50;;;;;;;32.60;21.20;;;11.40;94.30;;;;;;765258;187;26526;-87
2023/10/26 07:57:33;;;;;;;29.30;20.43;;;11.30;94.40;;;;;;783708;182;26481;-86
2023/10/26 08:00:08;;;;;;;34.53;25.23;;;11.20;94.10;;;;;;763924;185;26591;-87
2023/10/26 08:02:38;;;;;;;28.13;20.33;;;11.20;94.70;;;;;;766289;187;26570;-86
2023/10/26 08:05:08;;;;;;;26.57;21.03;;;11.30;94.60;;;;;;762054;187;26502;-86
2023/10/26 08:07:42;;;;;;;38.63;23.10;;;11.30;94.30;;;;;;764003;186;27069;-87
2023/10/26 08:10:16;;;;;;;30.10;21.67;;;11.40;94.50;;;;;;782891;179;26994;-86
2023/10/26 08:12:52;;;;;;;33.97;22.93;;;11.40;94.20;;;;;;762608;186;26514;-87
2023/10/26 08:15:23;;;;;;;26.17;21.23;;;11.50;94.50;;;;;;786783;181;27086;-86
2023/10/26 08:17:53;;;;;;;27.30;21.03;;;11.60;93.60;;;;;;773579;183;26990;-86
2023/10/26 08:20:28;;;;;;;27.50;20.77;;;11.60;93.70;;;;;;792818;177;26592;-86
2023/10/26 08:23:10;;;;;;;28.10;20.97;;;11.60;93.10;;;;;;780345;184;27012;-87
2023/10/26 08:25:40;;;;;;;34.27;23.20;;;11.60;93.80;;;;;;777282;181;26459;-86
2023/10/26 08:28:10;;;;;;;33.90;23.73;;;11.60;94.30;;;;;;775066;185;26499;-86
2023/10/26 08:30:40;;;;;;;28.17;21.80;;;11.60;93.70;;;;;;793278;178;27066;-86
2023/10/26 08:33:11;;;;;;;29.77;21.93;;;11.60;93.40;;;;;;782947;181;26985;-86
2023/10/26 08:35:47;;;;;;;25.57;20.57;;;11.70;93.70;;;;;;761702;184;26478;-87
2023/10/26 08:38:25;;;;;;;;;;;;;;;;;;;;;
2023/10/26 08:40:52;;;;;;;28.33;20.73;;;11.70;92.80;;;;;;790263;180;26468;-86
2023/10/26 08:43:24;;;;;;;28.53;21.77;;;11.80;92.50;;;;;;794549;179;26448;-87
2023/10/26 08:45:53;;;;;;;59.97;36.27;;;11.80;92.80;;;;;;792727;176;26501;-84
2023/10/26 08:48:41;;;;;;;26.70;21.27;;;12.00;93.60;;;;;;792717;180;26989;-87
2023/10/26 08:51:12;;;;;;;39.77;26.53;;;12.00;92.30;;;;;;777107;181;27010;-86
2023/10/26 08:53:45;;;;;;;27.67;22.63;;;12.10;93.30;;;;;;777960;183;26664;-87
2023/10/26 08:56:20;;;;;;;24.73;20.60;;;12.30;93.20;;;;;;797019;179;26504;-87
2023/10/26 08:58:52;;;;;;;26.20;21.20;;;12.50;92.30;;;;;;788807;180;26444;-87
2023/10/26 09:01:22;;;;;;;24.93;20.17;;;12.70;92.30;;;;;;791134;178;26481;-87
2023/10/26 09:03:58;;;;;;;25.90;19.60;;;12.80;91.30;;;;;;779693;182;27031;-86
2023/10/26 09:06:47;;;;;;;26.40;21.43;;;13.00;91.30;;;;;;784962;179;26500;-88
2023/10/26 09:09:21;;;;;;;25.93;19.30;;;13.20;91.10;;;;;;797276;180;26470;-87
2023/10/26 09:11:54;;;;;;;25.00;20.27;;;13.20;91.00;;;;;;797773;177;26473;-87
2023/10/26 09:14:26;;;;;;;20.43;16.83;;;13.30;90.40;;;;;;797463;180;26498;-87
2023/10/26 09:17:00;;;;;;;19.73;16.10;;;13.30;88.90;;;;;;781043;183;26790;-87
2023/10/26 09:19:40;;;;;;;21.80;17.87;;;13.10;87.40;;;;;;781121;181;26499;-87
2023/10/26 09:22:13;;;;;;;26.30;19.30;;;13.00;90.30;;;;;;777461;183;27024;-86
2023/10/26 09:24:38;;;;;;;20.20;17.07;;;13.00;91.40;;;;;;777439;181;26443;-87
2023/10/26 09:27:07;;;;;;;24.93;18.97;;;13.00;91.10;;;;;;768405;185;27054;-87
2023/10/26 09:29:51;;;;;;;20.97;17.67;;;12.90;91.70;;;;;;769064;184;27024;-86
2023/10/26 09:32:23;;;;;;;25.53;19.17;;;12.80;90.40;;;;;;769396;184;27149;-86
2023/10/26 09:34:52;;;;;;;28.33;21.70;;;12.70;90.00;;;;;;770778;184;26466;-86
2023/10/26 09:37:22;;;;;;;28.23;21.07;;;12.50;90.10;;;;;;777405;183;26510;-86
2023/10/26 09:39:52;;;;;;;29.43;22.03;;;12.60;90.80;;;;;;761631;182;27082;-86
2023/10/26 09:42:28;;;;;;;26.17;20.73;;;12.60;91.80;;;;;;753074;191;26501;-86
2023/10/26 09:44:57;;;;;;;24.47;18.77;;;12.70;91.60;;;;;;754222;188;26479;-87
2023/10/26 09:47:26;;;;;;;17.40;14.33;;;12.80;92.30;;;;;;786121;180;26502;-86
2023/10/26 09:50:03;;;;;;;10.03;8.90;;;12.90;91.40;;;;;;785903;180;26463;-87
2023/10/26 09:55:15;;;;;;;13.27;11.57;;;13.20;88.70;;;;;;765544;186;27162;-86
2023/10/26 09:57:49;;;;;;;17.17;13.57;;;13.40;89.20;;;;;;766275;185;26510;-86
2023/10/26 10:00:19;;;;;;;16.40;14.60;;;13.70;88.40;;;;;;764820;185;26565;-86
2023/10/26 10:02:57;;;;;;;24.70;16.40;;;13.80;85.00;;;;;;784770;181;26444;-86
2023/10/26 10:05:38;;;;;;;16.27;13.30;;;13.90;86.70;;;;;;764045;188;26493;-86
2023/10/26 10:08:16;;;;;;;18.70;15.37;;;14.00;88.40;;;;;;769097;186;26478;-86
2023/10/26 10:10:58;;;;;;;19.73;15.53;;;14.10;85.20;;;;;;765808;184;26527;-87
2023/10/26 10:14:07;;;;;;;20.63;16.73;;;14.30;83.70;;;;;;797764;179;26473;-86
2023/10/26 10:16:30;;;;;;;17.23;13.67;;;14.50;85.60;;;;;;800978;179;26466;-86
2023/10/26 10:19:08;;;;;;;16.00;13.70;;;14.60;85.80;;;;;;780974;183;26475;-87
2023/10/26 10:21:38;;;;;;;16.07;14.23;;;14.40;84.90;;;;;;783468;179;26482;-87
2023/10/26 10:24:07;;;;;;;14.57;13.07;;;14.30;86.40;;;;;;762724;188;26501;-87
2023/10/26 10:26:47;;;;;;;12.27;8.93;;;14.10;87.80;;;;;;764890;185;26491;-86
2023/10/26 10:29:21;;;;;;;11.43;10.23;;;14.30;83.70;;;;;;779255;182;26462;-86
2023/10/26 10:31:50;;;;;;;14.37;12.87;;;14.40;82.50;;;;;;780459;179;27030;-87
2023/10/26 10:34:24;;;;;;;20.90;16.77;;;14.60;83.90;;;;;;780440;181;26449;-88
2023/10/26 10:37:17;;;;;;;20.03;16.50;;;14.60;84.60;;;;;;779930;184;26720;-88
2023/10/26 10:39:57;;;;;;;18.30;15.20;;;14.60;86.10;;;;;;779899;182;26480;-86
2023/10/26 10:42:31;;;;;;;18.60;16.63;;;15.00;84.10;;;;;;777492;185;26471;-86
2023/10/26 10:45:19;;;;;;;19.23;16.77;;;15.00;83.10;;;;;;775048;185;26473;-87
2023/10/26 10:47:48;;;;;;;19.80;17.63;;;14.80;82.10;;;;;;783735;181;26498;-87
2023/10/26 10:50:27;;;;;;;25.10;18.93;;;14.70;84.90;;;;;;780594;181;26467;-89
2023/10/26 10:53:12;;;;;;;19.60;16.43;;;14.40;85.10;;;;;;771905;183;26491;-87
2023/10/26 10:55:47;;;;;;;21.53;17.57;;;14.50;84.90;;;;;;767233;186;26481;-87
2023/10/26 10:58:19;;;;;;;19.90;16.77;;;15.30;87.00;;;;;;788745;180;27009;-87
2023/10/26 11:00:49;;;;;;;20.10;16.40;;;15.60;84.20;;;;;;787818;179;26469;-87
2023/10/26 11:03:26;;;;;;;21.60;15.13;;;15.40;82.30;;;;;;783730;178;27072;-87
2023/10/26 11:05:59;;;;;;;16.33;14.00;;;15.40;80.90;;;;;;792374;179;27043;-86
2023/10/26 11:11:56;;;;;;;11.53;10.43;;;16.20;80.00;;;;;;797722;176;26987;-87
2023/10/26 11:14:20;;;;;;;13.20;11.90;;;16.70;76.20;;;;;;802591;179;27033;-87
2023/10/26 11:16:49;;;;;;;11.10;9.87;;;16.90;77.10;;;;;;770249;186;26533;-87
2023/10/26 11:19:18;;;;;;;12.23;10.50;;;16.50;75.90;;;;;;775991;185;26479;-88
2023/10/26 11:21:49;;;;;;;13.63;10.77;;;16.10;72.50;;;;;;763581;184;26547;-87
2023/10/26 11:24:20;;;;;;;13.10;11.67;;;15.60;74.50;;;;;;763083;187;26522;-86
2023/10/26 11:27:12;;;;;;;12.90;11.60;;;15.20;79.40;;;;;;790471;180;26451;-86
2023/10/26 11:29:52;;;;;;;12.27;10.17;;;15.30;79.90;;;;;;782868;180;26521;-86
2023/10/26 11:32:24;;;;;;;11.80;10.60;;;15.30;81.30;;;;;;783736;181;26999;-88
2023/10/26 11:35:13;;;;;;;12.47;11.17;;;15.00;79.30;;;;;;787016;180;26463;-86
2023/10/26 11:37:48;;;;;;;12.77;11.33;;;15.00;79.90;;;;;;763020;188;26487;-87
2023/10/26 11:40:17;;;;;;;13.60;11.10;;;15.10;80.80;;;;;;762493;185;26515;-87
2023/10/26 11:42:51;;;;;;;11.90;10.70;;;15.40;78.60;;;;;;764054;188;26511;-86
2023/10/26 11:45:22;;;;;;;11.17;9.90;;;15.50;76.80;;;;;;775724;183;26496;-88
2023/10/26 11:47:54;;;;;;;11.37;9.50;;;15.40;77.40;;;;;;775398;184;27057;-87
2023/10/26 11:50:38;;;;;;;10.27;9.20;;;16.10;78.20;;;;;;801258;176;26467;-87
2023/10/26 11:53:09;;;;;;;11.13;9.20;;;16.80;70.20;;;;;;786985;183;27021;-87
2023/10/26 11:55:43;;;;;;;7.90;7.10;;;16.90;71.40;;;;;;791287;177;26445;-87
2023/10/26 11:58:12;;;;;;;7.10;6.27;;;17.40;67.80;;;;;;763910;185;26542;-87
2023/10/26 12:00:57;;;;;;;6.93;6.23;;;16.90;68.90;;;;;;762094;186;27105;-89
2023/10/26 12:03:29;;;;;;;6.83;6.13;;;16.40;72.10;;;;;;762207;188;26537;-88
2023/10/26 12:06:05;;;;;;;7.53;6.70;;;15.30;71.30;;;;;;764020;187;27045;-87
2023/10/26 12:08:38;;;;;;;8.50;7.70;;;15.20;72.20;;;;;;778947;183;26998;-87
2023/10/26 12:11:17;;;;;;;10.07;8.47;;;14.90;78.10;;;;;;764065;185;26541;-87
2023/10/26 12:13:52;;;;;;;10.33;8.73;;;14.90;77.90;;;;;;769152;187;27051;-87
2023/10/26 12:16:33;;;;;;;10.00;8.97;;;15.10;77.80;;;;;;776917;180;26474;-87
2023/10/26 12:19:06;;;;;;;8.90;7.63;;;15.20;80.80;;;;;;777348;182;26471;-87
2023/10/26 12:21:42;;;;;;;9.87;6.23;;;14.90;77.40;;;;;;783720;180;26502;-87
2023/10/26 12:24:14;;;;;;;9.57;6.50;;;14.70;75.80;;;;;;783249;182;26460;-86
2023/10/26 12:26:53;;;;;;;7.60;6.30;;;14.90;78.80;;;;;;780883;182;26521;-86
2023/10/26 12:29:36;;;;;;;7.00;6.30;;;14.90;77.30;;;;;;780835;184;26466;-87
2023/10/26 12:32:10;;;;;;;6.20;5.60;;;14.90;76.50;;;;;;788892;177;26453;-87
2023/10/26 12:37:18;;;;;;;9.03;7.73;;;15.00;76.10;;;;;;791187;179;27000;-87
2023/10/26 12:39:49;;;;;;;8.47;7.63;;;14.80;74.90;;;;;;768506;184;27096;-86
2023/10/26 12:42:19;;;;;;;8.33;7.53;;;14.80;76.00;;;;;;778693;182;26464;-88
2023/10/26 12:44:55;;;;;;;8.33;7.53;;;14.60;78.10;;;;;;778725;183;26982;-87
2023/10/26 12:47:48;;;;;;;9.97;8.80;;;14.30;76.90;;;;;;789829;181;26499;-87
2023/10/26 12:50:30;;;;;;;10.60;8.00;;;14.40;81.00;;;;;;761618;185;26519;-86
2023/10/26 13:01:25;;;;;;;8.73;7.83;;;14.70;77.30;;;;;;769742;184;26457;-88
2023/10/26 13:03:56;;;;;;;9.77;8.87;;;14.60;80.10;;;;;;789930;180;26450;-87
2023/10/26 13:06:27;;;;;;;18.30;9.43;;;14.60;81.10;;;;;;768363;183;27109;-87
2023/10/26 13:09:02;;;;;;;9.93;8.17;;;14.70;80.60;;;;;;791358;180;26513;-87
2023/10/26 13:14:07;;;;;;;7.97;6.53;;;14.90;82.40;;;;;;790635;180;26454;-86
2023/10/26 13:16:39;;;;;;;8.27;7.00;;;14.70;78.00;;;;;;783062;181;26471;-87
2023/10/26 13:19:27;;;;;;;12.13;8.00;;;14.70;80.50;;;;;;790167;182;26451;-87
2023/10/26 13:21:59;;;;;;;13.30;7.63;;;14.50;79.60;;;;;;789049;180;26477;-87
2023/10/26 13:24:33;;;;;;;10.37;7.50;;;14.60;80.80;;;;;;792176;180;26451;-86
2023/10/26 13:27:16;;;;;;;7.73;7.00;;;14.50;79.80;;;;;;769259;187;26548;-87
2023/10/26 13:29:54;;;;;;;10.73;6.90;;;14.30;80.00;;;;;;770497;183;26496;-87